sensor_id;sensor_type;location;lat;lon;timestamp;P1;durP1;ratioP1;P2;durP2;ratioP2
71048;SDS011;58704;53.358;-6.238;2023-05-07T00:01:14;7.27;;;3.67;;
71048;SDS011;58704;53.358;-6.238;2023-05-07T00:03:40;10.60;;;3.30;;
71048;SDS011;58704;53.358;-6.238;2023-05-07T00:06:05;8.90;;;4.00;;
71048;SDS011;58704;53.358;-6.238;2023-05-07T00:08:31;10.83;;;4.20;;
71048;SDS011;58704;53.358;-6.238;2023-05-07T00:10:56;12.93;;;4.37;;
71048;SDS011;58704;53.358;-6.238;2023-05-07T00:13:22;9.17;;;4.10;;
71048;SDS011;58704;53.358;-6.238;2023-05-07T00:15:47;8.77;;;3.45;;
71048;SDS011;58704;53.358;-6.238;2023-05-07T00:18:12;10.33;;;4.00;;
71048;SDS011;58704;53.358;-6.238;2023-05-07T00:20:38;9.55;;;3.67;;
71048;SDS011;58704;53.358;-6.238;2023-05-07T00:23:04;9.40;;;3.50;;
71048;SDS011;58704;53.358;-6.238;2023-05-07T00:25:29;8.03;;;3.93;;
71048;SDS011;58704;53.358;-6.238;2023-05-07T00:27:54;11.90;;;4.20;;
71048;SDS011;58704;53.358;-6.238;2023-05-07T00:30:20;9.65;;;3.70;;
71048;SDS011;58704;53.358;-6.238;2023-05-07T00:32:45;9.37;;;3.67;;
71048;SDS011;58704;53.358;-6.238;2023-05-07T00:35:11;10.60;;;3.63;;
71048;SDS011;58704;53.358;-6.238;2023-05-07T00:37:36;12.93;;;3.73;;
71048;SDS011;58704;53.358;-6.238;2023-05-07T00:40:02;11.82;;;3.65;;
71048;SDS011;58704;53.358;-6.238;2023-05-07T00:42:29;18.83;;;4.05;;
71048;SDS011;58704;53.358;-6.238;2023-05-07T00:44:57;14.17;;;3.93;;
71048;SDS011;58704;53.358;-6.238;2023-05-07T00:47:22;9.57;;;4.13;;
71048;SDS011;58704;53.358;-6.238;2023-05-07T00:49:48;11.82;;;3.72;;
71048;SDS011;58704;53.358;-6.238;2023-05-07T00:52:15;19.67;;;5.17;;
71048;SDS011;58704;53.358;-6.238;2023-05-07T00:54:42;11.75;;;3.72;;
71048;SDS011;58704;53.358;-6.238;2023-05-07T00:57:08;9.23;;;3.93;;
71048;SDS011;58704;53.358;-6.238;2023-05-07T00:59:34;11.35;;;3.95;;
71048;SDS011;58704;53.358;-6.238;2023-05-07T01:02:00;15.57;;;4.23;;
71048;SDS011;58704;53.358;-6.238;2023-05-07T01:04:26;11.65;;;3.60;;
71048;SDS011;58704;53.358;-6.238;2023-05-07T01:06:51;9.93;;;3.83;;
71048;SDS011;58704;53.358;-6.238;2023-05-07T01:09:18;14.70;;;4.32;;
71048;SDS011;58704;53.358;-6.238;2023-05-07T01:11:45;10.30;;;3.63;;
71048;SDS011;58704;53.358;-6.238;2023-05-07T01:14:10;12.20;;;4.20;;
71048;SDS011;58704;53.358;-6.238;2023-05-07T01:16:36;10.53;;;3.50;;
71048;SDS011;58704;53.358;-6.238;2023-05-07T01:19:02;9.40;;;3.30;;
71048;SDS011;58704;53.358;-6.238;2023-05-07T01:21:27;6.97;;;3.27;;
71048;SDS011;58704;53.358;-6.238;2023-05-07T01:23:59;8.52;;;3.38;;
71048;SDS011;58704;53.358;-6.238;2023-05-07T01:26:24;9.23;;;3.47;;
71048;SDS011;58704;53.358;-6.238;2023-05-07T01:28:50;7.53;;;3.45;;
71048;SDS011;58704;53.358;-6.238;2023-05-07T01:31:16;10.47;;;3.50;;
71048;SDS011;58704;53.358;-6.238;2023-05-07T01:33:42;9.43;;;3.40;;
71048;SDS011;58704;53.358;-6.238;2023-05-07T01:36:09;11.77;;;3.97;;
71048;SDS011;58704;53.358;-6.238;2023-05-07T01:38:36;12.48;;;3.45;;
71048;SDS011;58704;53.358;-6.238;2023-05-07T01:41:02;6.43;;;3.30;;
71048;SDS011;58704;53.358;-6.238;2023-05-07T01:43:28;7.25;;;2.63;;
71048;SDS011;58704;53.358;-6.238;2023-05-07T01:45:55;8.57;;;3.20;;
71048;SDS011;58704;53.358;-6.238;2023-05-07T01:48:20;11.27;;;4.17;;
71048;SDS011;58704;53.358;-6.238;2023-05-07T01:50:46;7.25;;;3.53;;
71048;SDS011;58704;53.358;-6.238;2023-05-07T01:53:12;7.07;;;3.13;;
71048;SDS011;58704;53.358;-6.238;2023-05-07T01:55:38;10.97;;;3.47;;
71048;SDS011;58704;53.358;-6.238;2023-05-07T01:58:05;9.32;;;3.92;;
71048;SDS011;58704;53.358;-6.238;2023-05-07T02:00:30;17.37;;;3.67;;
71048;SDS011;58704;53.358;-6.238;2023-05-07T02:02:56;8.60;;;3.05;;
71048;SDS011;58704;53.358;-6.238;2023-05-07T02:05:22;7.05;;;2.92;;
71048;SDS011;58704;53.358;-6.238;2023-05-07T02:07:48;8.33;;;3.17;;
71048;SDS011;58704;53.358;-6.238;2023-05-07T02:10:13;9.90;;;2.80;;
71048;SDS011;58704;53.358;-6.238;2023-05-07T02:12:39;7.37;;;3.20;;
71048;SDS011;58704;53.358;-6.238;2023-05-07T02:15:04;7.83;;;3.10;;
71048;SDS011;58704;53.358;-6.238;2023-05-07T02:17:30;6.75;;;2.78;;
71048;SDS011;58704;53.358;-6.238;2023-05-07T02:19:57;10.77;;;2.67;;
71048;SDS011;58704;53.358;-6.238;2023-05-07T02:22:23;4.67;;;2.43;;
71048;SDS011;58704;53.358;-6.238;2023-05-07T02:24:48;7.37;;;2.60;;
71048;SDS011;58704;53.358;-6.238;2023-05-07T02:27:14;7.97;;;2.88;;
71048;SDS011;58704;53.358;-6.238;2023-05-07T02:29:39;6.43;;;2.53;;
71048;SDS011;58704;53.358;-6.238;2023-05-07T02:32:05;7.87;;;2.70;;
71048;SDS011;58704;53.358;-6.238;2023-05-07T02:34:30;10.37;;;3.03;;
71048;SDS011;58704;53.358;-6.238;2023-05-07T02:36:56;6.30;;;3.20;;
71048;SDS011;58704;53.358;-6.238;2023-05-07T02:39:21;3.40;;;2.40;;
71048;SDS011;58704;53.358;-6.238;2023-05-07T02:41:47;5.63;;;2.30;;
71048;SDS011;58704;53.358;-6.238;2023-05-07T02:44:12;5.77;;;2.07;;
71048;SDS011;58704;53.358;-6.238;2023-05-07T02:46:37;4.40;;;2.03;;
71048;SDS011;58704;53.358;-6.238;2023-05-07T02:49:03;8.27;;;3.33;;
71048;SDS011;58704;53.358;-6.238;2023-05-07T02:51:29;8.33;;;2.97;;
71048;SDS011;58704;53.358;-6.238;2023-05-07T02:53:55;8.70;;;2.92;;
71048;SDS011;58704;53.358;-6.238;2023-05-07T02:56:20;8.13;;;2.63;;
71048;SDS011;58704;53.358;-6.238;2023-05-07T02:58:46;5.93;;;2.10;;
71048;SDS011;58704;53.358;-6.238;2023-05-07T03:01:11;4.45;;;2.17;;
71048;SDS011;58704;53.358;-6.238;2023-05-07T03:03:38;9.10;;;2.87;;
71048;SDS011;58704;53.358;-6.238;2023-05-07T03:06:04;7.00;;;2.83;;
71048;SDS011;58704;53.358;-6.238;2023-05-07T03:08:30;7.72;;;2.78;;
71048;SDS011;58704;53.358;-6.238;2023-05-07T03:10:57;8.23;;;2.90;;
71048;SDS011;58704;53.358;-6.238;2023-05-07T03:13:22;6.63;;;2.25;;
71048;SDS011;58704;53.358;-6.238;2023-05-07T03:15:48;6.33;;;2.73;;
71048;SDS011;58704;53.358;-6.238;2023-05-07T03:18:13;6.43;;;3.10;;
71048;SDS011;58704;53.358;-6.238;2023-05-07T03:20:38;3.35;;;2.30;;
71048;SDS011;58704;53.358;-6.238;2023-05-07T03:23:04;5.83;;;2.90;;
71048;SDS011;58704;53.358;-6.238;2023-05-07T03:25:30;6.50;;;3.00;;
71048;SDS011;58704;53.358;-6.238;2023-05-07T03:27:55;5.93;;;2.73;;
71048;SDS011;58704;53.358;-6.238;2023-05-07T03:30:21;7.90;;;3.23;;
71048;SDS011;58704;53.358;-6.238;2023-05-07T03:32:46;6.00;;;2.90;;
71048;SDS011;58704;53.358;-6.238;2023-05-07T03:35:12;9.77;;;2.97;;
71048;SDS011;58704;53.358;-6.238;2023-05-07T03:37:37;8.30;;;3.20;;
71048;SDS011;58704;53.358;-6.238;2023-05-07T03:40:03;6.68;;;3.30;;
71048;SDS011;58704;53.358;-6.238;2023-05-07T03:42:29;11.23;;;3.60;;
71048;SDS011;58704;53.358;-6.238;2023-05-07T03:44:55;8.70;;;3.50;;
71048;SDS011;58704;53.358;-6.238;2023-05-07T03:47:20;6.80;;;3.07;;
71048;SDS011;58704;53.358;-6.238;2023-05-07T03:49:46;10.50;;;3.37;;
71048;SDS011;58704;53.358;-6.238;2023-05-07T03:52:11;9.25;;;3.38;;
71048;SDS011;58704;53.358;-6.238;2023-05-07T03:54:37;5.90;;;2.80;;
71048;SDS011;58704;53.358;-6.238;2023-05-07T03:57:02;8.90;;;4.03;;
71048;SDS011;58704;53.358;-6.238;2023-05-07T03:59:27;8.87;;;3.60;;
71048;SDS011;58704;53.358;-6.238;2023-05-07T04:01:53;9.63;;;3.20;;
71048;SDS011;58704;53.358;-6.238;2023-05-07T04:04:18;7.13;;;3.17;;
71048;SDS011;58704;53.358;-6.238;2023-05-07T04:06:44;4.43;;;2.83;;
71048;SDS011;58704;53.358;-6.238;2023-05-07T04:09:09;7.50;;;3.03;;
71048;SDS011;58704;53.358;-6.238;2023-05-07T04:11:35;9.03;;;3.00;;
71048;SDS011;58704;53.358;-6.238;2023-05-07T04:14:01;7.63;;;3.00;;
71048;SDS011;58704;53.358;-6.238;2023-05-07T04:16:26;6.50;;;2.58;;
71048;SDS011;58704;53.358;-6.238;2023-05-07T04:18:52;8.40;;;2.73;;
71048;SDS011;58704;53.358;-6.238;2023-05-07T04:21:17;6.57;;;2.90;;
71048;SDS011;58704;53.358;-6.238;2023-05-07T04:23:45;6.93;;;2.72;;
71048;SDS011;58704;53.358;-6.238;2023-05-07T04:26:11;6.20;;;3.50;;
71048;SDS011;58704;53.358;-6.238;2023-05-07T04:28:36;10.37;;;3.30;;
71048;SDS011;58704;53.358;-6.238;2023-05-07T04:31:01;5.23;;;2.43;;
71048;SDS011;58704;53.358;-6.238;2023-05-07T04:33:27;8.50;;;2.97;;
71048;SDS011;58704;53.358;-6.238;2023-05-07T04:35:52;6.00;;;2.37;;
71048;SDS011;58704;53.358;-6.238;2023-05-07T04:38:18;8.53;;;2.80;;
71048;SDS011;58704;53.358;-6.238;2023-05-07T04:40:43;6.53;;;3.00;;
71048;SDS011;58704;53.358;-6.238;2023-05-07T04:43:09;4.40;;;2.75;;
71048;SDS011;58704;53.358;-6.238;2023-05-07T04:45:35;8.85;;;2.60;;
71048;SDS011;58704;53.358;-6.238;2023-05-07T04:48:01;8.37;;;2.80;;
71048;SDS011;58704;53.358;-6.238;2023-05-07T04:50:27;7.13;;;2.78;;
71048;SDS011;58704;53.358;-6.238;2023-05-07T04:52:52;9.17;;;3.37;;
71048;SDS011;58704;53.358;-6.238;2023-05-07T04:55:17;4.77;;;2.40;;
71048;SDS011;58704;53.358;-6.238;2023-05-07T04:57:43;6.95;;;2.90;;
71048;SDS011;58704;53.358;-6.238;2023-05-07T05:00:08;5.30;;;2.80;;
71048;SDS011;58704;53.358;-6.238;2023-05-07T05:02:35;7.13;;;3.05;;
71048;SDS011;58704;53.358;-6.238;2023-05-07T05:05:00;5.47;;;2.30;;
71048;SDS011;58704;53.358;-6.238;2023-05-07T05:07:27;7.35;;;2.78;;
71048;SDS011;58704;53.358;-6.238;2023-05-07T05:09:53;6.90;;;2.50;;
71048;SDS011;58704;53.358;-6.238;2023-05-07T05:12:18;7.32;;;2.97;;
71048;SDS011;58704;53.358;-6.238;2023-05-07T05:14:44;12.07;;;3.20;;
71048;SDS011;58704;53.358;-6.238;2023-05-07T05:17:09;6.43;;;3.10;;
71048;SDS011;58704;53.358;-6.238;2023-05-07T05:19:35;8.30;;;3.50;;
71048;SDS011;58704;53.358;-6.238;2023-05-07T05:22:00;8.20;;;2.80;;
71048;SDS011;58704;53.358;-6.238;2023-05-07T05:24:26;5.70;;;3.10;;
71048;SDS011;58704;53.358;-6.238;2023-05-07T05:26:52;11.33;;;3.30;;
71048;SDS011;58704;53.358;-6.238;2023-05-07T05:29:18;6.72;;;2.80;;
71048;SDS011;58704;53.358;-6.238;2023-05-07T05:31:44;7.63;;;3.15;;
71048;SDS011;58704;53.358;-6.238;2023-05-07T05:34:09;8.13;;;3.20;;
71048;SDS011;58704;53.358;-6.238;2023-05-07T05:36:35;5.70;;;2.93;;
71048;SDS011;58704;53.358;-6.238;2023-05-07T05:39:00;8.17;;;3.00;;
71048;SDS011;58704;53.358;-6.238;2023-05-07T05:41:26;5.93;;;2.83;;
71048;SDS011;58704;53.358;-6.238;2023-05-07T05:43:51;8.03;;;3.30;;
71048;SDS011;58704;53.358;-6.238;2023-05-07T05:46:16;8.00;;;3.27;;
71048;SDS011;58704;53.358;-6.238;2023-05-07T05:48:42;7.30;;;2.80;;
71048;SDS011;58704;53.358;-6.238;2023-05-07T05:51:07;8.23;;;3.70;;
71048;SDS011;58704;53.358;-6.238;2023-05-07T05:53:32;7.33;;;2.87;;
71048;SDS011;58704;53.358;-6.238;2023-05-07T05:55:58;4.97;;;3.00;;
71048;SDS011;58704;53.358;-6.238;2023-05-07T05:58:24;9.57;;;3.17;;
71048;SDS011;58704;53.358;-6.238;2023-05-07T06:00:49;6.33;;;3.13;;
71048;SDS011;58704;53.358;-6.238;2023-05-07T06:03:17;5.03;;;2.90;;
71048;SDS011;58704;53.358;-6.238;2023-05-07T06:05:42;8.70;;;3.60;;
71048;SDS011;58704;53.358;-6.238;2023-05-07T06:08:08;12.10;;;3.13;;
71048;SDS011;58704;53.358;-6.238;2023-05-07T06:10:33;6.70;;;3.17;;
71048;SDS011;58704;53.358;-6.238;2023-05-07T06:12:58;8.20;;;3.70;;
71048;SDS011;58704;53.358;-6.238;2023-05-07T06:15:24;6.87;;;3.10;;
71048;SDS011;58704;53.358;-6.238;2023-05-07T06:17:50;7.32;;;3.10;;
71048;SDS011;58704;53.358;-6.238;2023-05-07T06:20:15;7.33;;;3.47;;
71048;SDS011;58704;53.358;-6.238;2023-05-07T06:22:40;6.50;;;3.03;;
71048;SDS011;58704;53.358;-6.238;2023-05-07T06:25:06;6.13;;;3.27;;
71048;SDS011;58704;53.358;-6.238;2023-05-07T06:27:32;9.05;;;3.63;;
71048;SDS011;58704;53.358;-6.238;2023-05-07T06:29:57;8.73;;;3.40;;
71048;SDS011;58704;53.358;-6.238;2023-05-07T06:32:23;6.32;;;3.58;;
71048;SDS011;58704;53.358;-6.238;2023-05-07T06:34:48;6.30;;;3.70;;
71048;SDS011;58704;53.358;-6.238;2023-05-07T06:37:13;8.63;;;3.77;;
71048;SDS011;58704;53.358;-6.238;2023-05-07T06:39:39;8.93;;;4.27;;
71048;SDS011;58704;53.358;-6.238;2023-05-07T06:42:04;5.10;;;3.40;;
71048;SDS011;58704;53.358;-6.238;2023-05-07T06:44:30;5.65;;;3.25;;
71048;SDS011;58704;53.358;-6.238;2023-05-07T06:46:56;9.47;;;4.07;;
71048;SDS011;58704;53.358;-6.238;2023-05-07T06:49:21;8.43;;;3.72;;
71048;SDS011;58704;53.358;-6.238;2023-05-07T06:51:47;7.80;;;3.33;;
71048;SDS011;58704;53.358;-6.238;2023-05-07T06:54:12;7.30;;;3.73;;
71048;SDS011;58704;53.358;-6.238;2023-05-07T06:56:38;7.93;;;3.50;;
71048;SDS011;58704;53.358;-6.238;2023-05-07T06:59:03;8.03;;;3.40;;
71048;SDS011;58704;53.358;-6.238;2023-05-07T07:01:29;5.60;;;3.30;;
71048;SDS011;58704;53.358;-6.238;2023-05-07T07:03:54;8.00;;;3.50;;
71048;SDS011;58704;53.358;-6.238;2023-05-07T07:06:20;7.15;;;3.10;;
71048;SDS011;58704;53.358;-6.238;2023-05-07T07:08:46;8.73;;;3.25;;
71048;SDS011;58704;53.358;-6.238;2023-05-07T07:11:12;16.67;;;3.60;;
71048;SDS011;58704;53.358;-6.238;2023-05-07T07:13:37;12.57;;;3.27;;
71048;SDS011;58704;53.358;-6.238;2023-05-07T07:16:02;10.70;;;2.87;;
71048;SDS011;58704;53.358;-6.238;2023-05-07T07:18:28;9.68;;;2.80;;
71048;SDS011;58704;53.358;-6.238;2023-05-07T07:20:54;9.33;;;2.67;;
71048;SDS011;58704;53.358;-6.238;2023-05-07T07:23:19;8.93;;;2.60;;
71048;SDS011;58704;53.358;-6.238;2023-05-07T07:25:44;10.10;;;2.60;;
71048;SDS011;58704;53.358;-6.238;2023-05-07T07:28:10;8.13;;;2.80;;
71048;SDS011;58704;53.358;-6.238;2023-05-07T07:30:36;7.80;;;2.90;;
71048;SDS011;58704;53.358;-6.238;2023-05-07T07:33:02;10.60;;;3.33;;
71048;SDS011;58704;53.358;-6.238;2023-05-07T07:35:31;4.35;;;2.72;;
71048;SDS011;58704;53.358;-6.238;2023-05-07T07:37:57;8.15;;;2.88;;
71048;SDS011;58704;53.358;-6.238;2023-05-07T07:40:23;10.27;;;3.10;;
71048;SDS011;58704;53.358;-6.238;2023-05-07T07:42:49;15.93;;;3.33;;
71048;SDS011;58704;53.358;-6.238;2023-05-07T07:45:14;11.37;;;3.13;;
71048;SDS011;58704;53.358;-6.238;2023-05-07T07:47:40;9.33;;;3.00;;
71048;SDS011;58704;53.358;-6.238;2023-05-07T07:50:05;9.55;;;2.95;;
71048;SDS011;58704;53.358;-6.238;2023-05-07T07:52:32;4.35;;;2.25;;
71048;SDS011;58704;53.358;-6.238;2023-05-07T07:54:57;5.67;;;2.23;;
71048;SDS011;58704;53.358;-6.238;2023-05-07T07:57:23;7.37;;;2.50;;
71048;SDS011;58704;53.358;-6.238;2023-05-07T07:59:48;8.10;;;2.53;;
71048;SDS011;58704;53.358;-6.238;2023-05-07T08:02:15;8.65;;;2.70;;
71048;SDS011;58704;53.358;-6.238;2023-05-07T08:04:40;7.90;;;2.87;;
71048;SDS011;58704;53.358;-6.238;2023-05-07T08:07:10;7.50;;;2.47;;
71048;SDS011;58704;53.358;-6.238;2023-05-07T08:09:39;6.77;;;2.87;;
71048;SDS011;58704;53.358;-6.238;2023-05-07T08:12:07;7.72;;;2.60;;
71048;SDS011;58704;53.358;-6.238;2023-05-07T08:14:33;7.18;;;3.22;;
71048;SDS011;58704;53.358;-6.238;2023-05-07T08:17:02;9.77;;;3.33;;
71048;SDS011;58704;53.358;-6.238;2023-05-07T08:19:27;8.63;;;3.15;;
71048;SDS011;58704;53.358;-6.238;2023-05-07T08:21:53;7.17;;;3.07;;
71048;SDS011;58704;53.358;-6.238;2023-05-07T08:24:18;8.68;;;3.53;;
71048;SDS011;58704;53.358;-6.238;2023-05-07T08:26:44;9.57;;;3.67;;
71048;SDS011;58704;53.358;-6.238;2023-05-07T08:29:15;4.80;;;2.90;;
71048;SDS011;58704;53.358;-6.238;2023-05-07T08:31:48;4.33;;;3.00;;
71048;SDS011;58704;53.358;-6.238;2023-05-07T08:34:13;8.85;;;3.50;;
71048;SDS011;58704;53.358;-6.238;2023-05-07T08:36:39;3.40;;;3.00;;
71048;SDS011;58704;53.358;-6.238;2023-05-07T08:39:09;7.72;;;2.78;;
71048;SDS011;58704;53.358;-6.238;2023-05-07T08:41:37;6.57;;;3.20;;
71048;SDS011;58704;53.358;-6.238;2023-05-07T08:44:06;7.10;;;2.70;;
71048;SDS011;58704;53.358;-6.238;2023-05-07T08:46:37;7.83;;;3.13;;
71048;SDS011;58704;53.358;-6.238;2023-05-07T08:49:13;4.45;;;3.38;;
71048;SDS011;58704;53.358;-6.238;2023-05-07T08:51:42;6.88;;;3.20;;
71048;SDS011;58704;53.358;-6.238;2023-05-07T08:54:37;6.50;;;3.22;;
71048;SDS011;58704;53.358;-6.238;2023-05-07T08:57:05;5.40;;;3.00;;
71048;SDS011;58704;53.358;-6.238;2023-05-07T08:59:32;6.47;;;3.10;;
71048;SDS011;58704;53.358;-6.238;2023-05-07T09:01:58;7.90;;;3.03;;
71048;SDS011;58704;53.358;-6.238;2023-05-07T09:04:28;5.87;;;2.93;;
71048;SDS011;58704;53.358;-6.238;2023-05-07T09:06:59;9.48;;;3.75;;
71048;SDS011;58704;53.358;-6.238;2023-05-07T09:09:31;4.85;;;2.83;;
71048;SDS011;58704;53.358;-6.238;2023-05-07T09:12:02;7.65;;;3.22;;
71048;SDS011;58704;53.358;-6.238;2023-05-07T09:14:32;7.50;;;3.25;;
71048;SDS011;58704;53.358;-6.238;2023-05-07T09:17:02;7.33;;;3.13;;
71048;SDS011;58704;53.358;-6.238;2023-05-07T09:19:43;8.63;;;3.42;;
71048;SDS011;58704;53.358;-6.238;2023-05-07T09:22:14;9.57;;;3.60;;
71048;SDS011;58704;53.358;-6.238;2023-05-07T09:24:47;7.80;;;3.80;;
71048;SDS011;58704;53.358;-6.238;2023-05-07T09:27:18;7.00;;;3.65;;
71048;SDS011;58704;53.358;-6.238;2023-05-07T09:29:48;7.88;;;3.35;;
71048;SDS011;58704;53.358;-6.238;2023-05-07T09:32:16;6.82;;;3.15;;
71048;SDS011;58704;53.358;-6.238;2023-05-07T09:34:41;5.67;;;2.63;;
71048;SDS011;58704;53.358;-6.238;2023-05-07T09:37:07;7.63;;;3.20;;
71048;SDS011;58704;53.358;-6.238;2023-05-07T09:39:46;8.10;;;2.55;;
71048;SDS011;58704;53.358;-6.238;2023-05-07T09:42:16;5.15;;;2.33;;
71048;SDS011;58704;53.358;-6.238;2023-05-07T09:47:36;7.55;;;3.30;;
71048;SDS011;58704;53.358;-6.238;2023-05-07T09:50:10;6.73;;;2.50;;
71048;SDS011;58704;53.358;-6.238;2023-05-07T09:52:36;5.25;;;2.88;;
71048;SDS011;58704;53.358;-6.238;2023-05-07T09:55:02;6.10;;;2.63;;
71048;SDS011;58704;53.358;-6.238;2023-05-07T09:57:31;5.88;;;3.00;;
71048;SDS011;58704;53.358;-6.238;2023-05-07T09:59:59;10.63;;;3.63;;
71048;SDS011;58704;53.358;-6.238;2023-05-07T10:02:32;7.22;;;2.80;;
71048;SDS011;58704;53.358;-6.238;2023-05-07T10:05:13;6.00;;;2.33;;
71048;SDS011;58704;53.358;-6.238;2023-05-07T10:07:42;5.73;;;2.43;;
71048;SDS011;58704;53.358;-6.238;2023-05-07T10:10:15;5.22;;;2.10;;
71048;SDS011;58704;53.358;-6.238;2023-05-07T10:12:49;4.07;;;2.08;;
71048;SDS011;58704;53.358;-6.238;2023-05-07T10:15:14;8.50;;;2.17;;
71048;SDS011;58704;53.358;-6.238;2023-05-07T10:17:50;7.72;;;1.70;;
71048;SDS011;58704;53.358;-6.238;2023-05-07T10:20:16;3.37;;;1.73;;
71048;SDS011;58704;53.358;-6.238;2023-05-07T10:22:48;3.90;;;1.60;;
71048;SDS011;58704;53.358;-6.238;2023-05-07T10:25:23;5.75;;;2.10;;
71048;SDS011;58704;53.358;-6.238;2023-05-07T10:28:09;5.40;;;2.58;;
71048;SDS011;58704;53.358;-6.238;2023-05-07T10:33:35;4.10;;;1.90;;
71048;SDS011;58704;53.358;-6.238;2023-05-07T10:36:11;4.90;;;2.03;;
71048;SDS011;58704;53.358;-6.238;2023-05-07T10:38:39;3.92;;;2.10;;
71048;SDS011;58704;53.358;-6.238;2023-05-07T10:41:05;3.63;;;2.17;;
71048;SDS011;58704;53.358;-6.238;2023-05-07T10:43:40;8.88;;;2.15;;
71048;SDS011;58704;53.358;-6.238;2023-05-07T10:46:17;20.97;;;2.87;;
71048;SDS011;58704;53.358;-6.238;2023-05-07T10:51:31;7.35;;;2.80;;
71048;SDS011;58704;53.358;-6.238;2023-05-07T10:56:44;8.95;;;2.50;;
71048;SDS011;58704;53.358;-6.238;2023-05-07T11:04:43;5.85;;;2.17;;
71048;SDS011;58704;53.358;-6.238;2023-05-07T11:07:25;4.70;;;1.80;;
71048;SDS011;58704;53.358;-6.238;2023-05-07T11:09:55;6.90;;;2.00;;
71048;SDS011;58704;53.358;-6.238;2023-05-07T11:15:02;6.45;;;3.60;;
71048;SDS011;58704;53.358;-6.238;2023-05-07T11:17:34;7.38;;;3.90;;
71048;SDS011;58704;53.358;-6.238;2023-05-07T11:28:28;8.15;;;5.05;;
71048;SDS011;58704;53.358;-6.238;2023-05-07T11:30:55;6.65;;;5.20;;
71048;SDS011;58704;53.358;-6.238;2023-05-07T11:33:22;6.50;;;4.60;;
71048;SDS011;58704;53.358;-6.238;2023-05-07T11:35:47;10.40;;;5.03;;
71048;SDS011;58704;53.358;-6.238;2023-05-07T11:38:13;7.20;;;4.87;;
71048;SDS011;58704;53.358;-6.238;2023-05-07T11:40:51;5.97;;;4.60;;
71048;SDS011;58704;53.358;-6.238;2023-05-07T11:43:17;6.45;;;4.00;;
71048;SDS011;58704;53.358;-6.238;2023-05-07T11:45:44;6.50;;;3.47;;
71048;SDS011;58704;53.358;-6.238;2023-05-07T11:48:12;7.13;;;3.42;;
71048;SDS011;58704;53.358;-6.238;2023-05-07T11:50:59;6.88;;;3.22;;
71048;SDS011;58704;53.358;-6.238;2023-05-07T11:53:35;6.15;;;3.15;;
71048;SDS011;58704;53.358;-6.238;2023-05-07T11:56:14;4.63;;;3.00;;
71048;SDS011;58704;53.358;-6.238;2023-05-07T11:58:41;8.88;;;3.45;;
71048;SDS011;58704;53.358;-6.238;2023-05-07T12:01:08;5.20;;;3.53;;
71048;SDS011;58704;53.358;-6.238;2023-05-07T12:03:34;9.02;;;3.75;;
71048;SDS011;58704;53.358;-6.238;2023-05-07T12:06:02;8.75;;;4.40;;
71048;SDS011;58704;53.358;-6.238;2023-05-07T12:08:27;8.30;;;4.37;;
71048;SDS011;58704;53.358;-6.238;2023-05-07T12:10:53;9.33;;;4.53;;
71048;SDS011;58704;53.358;-6.238;2023-05-07T12:13:20;7.00;;;4.60;;
71048;SDS011;58704;53.358;-6.238;2023-05-07T12:15:50;9.68;;;3.78;;
71048;SDS011;58704;53.358;-6.238;2023-05-07T12:18:17;8.40;;;3.67;;
71048;SDS011;58704;53.358;-6.238;2023-05-07T12:20:43;10.80;;;3.63;;
71048;SDS011;58704;53.358;-6.238;2023-05-07T12:23:08;9.20;;;3.40;;
71048;SDS011;58704;53.358;-6.238;2023-05-07T12:25:36;9.18;;;3.15;;
71048;SDS011;58704;53.358;-6.238;2023-05-07T12:28:02;6.75;;;2.53;;
71048;SDS011;58704;53.358;-6.238;2023-05-07T12:30:29;7.30;;;2.70;;
71048;SDS011;58704;53.358;-6.238;2023-05-07T12:32:55;7.55;;;3.20;;
71048;SDS011;58704;53.358;-6.238;2023-05-07T12:35:28;6.00;;;2.57;;
71048;SDS011;58704;53.358;-6.238;2023-05-07T12:37:54;8.50;;;2.67;;
71048;SDS011;58704;53.358;-6.238;2023-05-07T12:40:20;3.10;;;1.65;;
71048;SDS011;58704;53.358;-6.238;2023-05-07T12:42:46;3.43;;;2.10;;
71048;SDS011;58704;53.358;-6.238;2023-05-07T12:45:12;5.35;;;2.28;;
71048;SDS011;58704;53.358;-6.238;2023-05-07T12:47:38;4.90;;;1.67;;
71048;SDS011;58704;53.358;-6.238;2023-05-07T12:50:07;3.97;;;1.85;;
71048;SDS011;58704;53.358;-6.238;2023-05-07T12:52:33;5.22;;;2.60;;
71048;SDS011;58704;53.358;-6.238;2023-05-07T12:55:04;4.22;;;1.90;;
71048;SDS011;58704;53.358;-6.238;2023-05-07T12:57:30;7.87;;;2.63;;
71048;SDS011;58704;53.358;-6.238;2023-05-07T12:59:57;8.80;;;2.55;;
71048;SDS011;58704;53.358;-6.238;2023-05-07T13:02:31;9.47;;;2.50;;
71048;SDS011;58704;53.358;-6.238;2023-05-07T13:04:57;5.25;;;2.50;;
71048;SDS011;58704;53.358;-6.238;2023-05-07T13:07:24;6.23;;;2.53;;
71048;SDS011;58704;53.358;-6.238;2023-05-07T13:09:50;2.60;;;1.90;;
71048;SDS011;58704;53.358;-6.238;2023-05-07T13:12:15;3.57;;;1.50;;
71048;SDS011;58704;53.358;-6.238;2023-05-07T13:14:41;2.28;;;1.58;;
71048;SDS011;58704;53.358;-6.238;2023-05-07T13:17:06;2.07;;;1.37;;
71048;SDS011;58704;53.358;-6.238;2023-05-07T13:19:32;3.23;;;2.10;;
71048;SDS011;58704;53.358;-6.238;2023-05-07T13:21:57;3.83;;;2.05;;
71048;SDS011;58704;53.358;-6.238;2023-05-07T13:24:22;3.13;;;1.80;;
71048;SDS011;58704;53.358;-6.238;2023-05-07T13:26:48;2.57;;;1.43;;
71048;SDS011;58704;53.358;-6.238;2023-05-07T13:29:14;3.20;;;1.50;;
71048;SDS011;58704;53.358;-6.238;2023-05-07T13:31:40;2.90;;;1.50;;
71048;SDS011;58704;53.358;-6.238;2023-05-07T13:34:09;3.63;;;1.40;;
71048;SDS011;58704;53.358;-6.238;2023-05-07T13:36:34;3.03;;;1.53;;
71048;SDS011;58704;53.358;-6.238;2023-05-07T13:39:02;2.13;;;1.63;;
71048;SDS011;58704;53.358;-6.238;2023-05-07T13:41:28;3.25;;;1.75;;
71048;SDS011;58704;53.358;-6.238;2023-05-07T13:43:55;2.42;;;1.30;;
71048;SDS011;58704;53.358;-6.238;2023-05-07T13:46:21;5.35;;;1.75;;
71048;SDS011;58704;53.358;-6.238;2023-05-07T13:48:46;3.43;;;1.57;;
71048;SDS011;58704;53.358;-6.238;2023-05-07T13:51:12;5.20;;;1.50;;
71048;SDS011;58704;53.358;-6.238;2023-05-07T13:53:37;3.77;;;1.43;;
71048;SDS011;58704;53.358;-6.238;2023-05-07T13:56:03;3.17;;;1.70;;
71048;SDS011;58704;53.358;-6.238;2023-05-07T13:58:29;3.58;;;1.75;;
71048;SDS011;58704;53.358;-6.238;2023-05-07T14:00:55;2.72;;;1.42;;
71048;SDS011;58704;53.358;-6.238;2023-05-07T14:03:21;3.00;;;1.40;;
71048;SDS011;58704;53.358;-6.238;2023-05-07T14:05:46;2.70;;;1.33;;
71048;SDS011;58704;53.358;-6.238;2023-05-07T14:08:12;2.35;;;1.40;;
71048;SDS011;58704;53.358;-6.238;2023-05-07T14:10:39;2.08;;;1.20;;
71048;SDS011;58704;53.358;-6.238;2023-05-07T14:13:05;5.03;;;1.60;;
71048;SDS011;58704;53.358;-6.238;2023-05-07T14:15:31;4.35;;;1.65;;
71048;SDS011;58704;53.358;-6.238;2023-05-07T14:17:57;5.22;;;1.45;;
71048;SDS011;58704;53.358;-6.238;2023-05-07T14:20:24;2.13;;;1.08;;
71048;SDS011;58704;53.358;-6.238;2023-05-07T14:22:49;2.93;;;1.20;;
71048;SDS011;58704;53.358;-6.238;2023-05-07T14:25:15;2.93;;;1.80;;
71048;SDS011;58704;53.358;-6.238;2023-05-07T14:27:40;3.50;;;1.57;;
71048;SDS011;58704;53.358;-6.238;2023-05-07T14:30:06;4.33;;;1.43;;
71048;SDS011;58704;53.358;-6.238;2023-05-07T14:32:32;2.78;;;1.30;;
71048;SDS011;58704;53.358;-6.238;2023-05-07T14:34:58;2.05;;;1.20;;
71048;SDS011;58704;53.358;-6.238;2023-05-07T14:37:23;2.50;;;1.20;;
71048;SDS011;58704;53.358;-6.238;2023-05-07T14:39:49;1.27;;;1.17;;
71048;SDS011;58704;53.358;-6.238;2023-05-07T14:42:14;3.20;;;1.40;;
71048;SDS011;58704;53.358;-6.238;2023-05-07T14:44:40;2.07;;;1.40;;
71048;SDS011;58704;53.358;-6.238;2023-05-07T14:47:06;4.30;;;1.30;;
71048;SDS011;58704;53.358;-6.238;2023-05-07T14:49:32;2.63;;;1.20;;
71048;SDS011;58704;53.358;-6.238;2023-05-07T14:51:58;2.47;;;1.30;;
71048;SDS011;58704;53.358;-6.238;2023-05-07T14:54:26;2.83;;;1.13;;
71048;SDS011;58704;53.358;-6.238;2023-05-07T14:56:52;2.33;;;1.25;;
71048;SDS011;58704;53.358;-6.238;2023-05-07T14:59:18;4.10;;;1.73;;